sensor_id;sensor_type;location;lat;lon;timestamp;pressure;altitude;pressure_sealevel;temperature;humidity
61128;BME280;47013;42.664;23.242;2023-10-09T00:01:51;94515.50;;;18.08;57.80
61128;BME280;47013;42.664;23.242;2023-10-09T00:04:17;94517.78;;;18.09;57.83
61128;BME280;47013;42.664;23.242;2023-10-09T00:06:43;94513.75;;;18.14;57.62
61128;BME280;47013;42.664;23.242;2023-10-09T00:09:09;94513.19;;;18.19;57.58
61128;BME280;47013;42.664;23.242;2023-10-09T00:11:51;94516.50;;;18.14;57.55
61128;BME280;47013;42.664;23.242;2023-10-09T00:14:26;94510.56;;;18.03;57.75
61128;BME280;47013;42.664;23.242;2023-10-09T00:16:55;94520.97;;;17.95;57.99
61128;BME280;47013;42.664;23.242;2023-10-09T00:19:36;94517.03;;;17.96;58.03
61128;BME280;47013;42.664;23.242;2023-10-09T00:22:02;94515.41;;;17.86;58.30
61128;BME280;47013;42.664;23.242;2023-10-09T00:24:35;94513.84;;;17.85;58.17
61128;BME280;47013;42.664;23.242;2023-10-09T00:27:01;94509.13;;;17.73;58.39
61128;BME280;47013;42.664;23.242;2023-10-09T00:29:44;94510.75;;;17.70;58.50
61128;BME280;47013;42.664;23.242;2023-10-09T00:32:14;94494.59;;;17.59;58.72
61128;BME280;47013;42.664;23.242;2023-10-09T00:34:44;94489.97;;;17.56;58.84
61128;BME280;47013;42.664;23.242;2023-10-09T00:37:10;94498.75;;;17.51;58.86
61128;BME280;47013;42.664;23.242;2023-10-09T00:39:45;94497.22;;;17.50;59.11
61128;BME280;47013;42.664;23.242;2023-10-09T00:42:14;94490.41;;;17.55;58.94
61128;BME280;47013;42.664;23.242;2023-10-09T00:44:51;94502.69;;;17.50;58.99
61128;BME280;47013;42.664;23.242;2023-10-09T00:47:17;94501.28;;;17.46;58.89
61128;BME280;47013;42.664;23.242;2023-10-09T00:49:59;94501.78;;;17.40;58.85
61128;BME280;47013;42.664;23.242;2023-10-09T00:52:31;94494.75;;;17.27;59.32
61128;BME280;47013;42.664;23.242;2023-10-09T00:55:00;94499.09;;;17.12;59.65
61128;BME280;47013;42.664;23.242;2023-10-09T00:57:29;94509.72;;;17.09;59.62
61128;BME280;47013;42.664;23.242;2023-10-09T00:59:58;94517.13;;;16.96;60.07
61128;BME280;47013;42.664;23.242;2023-10-09T01:02:28;94518.34;;;16.79;61.04
61128;BME280;47013;42.664;23.242;2023-10-09T01:05:04;94522.28;;;16.78;60.36
61128;BME280;47013;42.664;23.242;2023-10-09T01:07:37;94533.59;;;16.80;60.47
61128;BME280;47013;42.664;23.242;2023-10-09T01:10:06;94528.13;;;16.80;60.30
61128;BME280;47013;42.664;23.242;2023-10-09T01:12:34;94528.28;;;16.73;60.74
61128;BME280;47013;42.664;23.242;2023-10-09T01:15:07;94533.13;;;16.65;61.01
61128;BME280;47013;42.664;23.242;2023-10-09T01:17:33;94541.78;;;16.64;60.77
61128;BME280;47013;42.664;23.242;2023-10-09T01:20:02;94551.63;;;16.61;60.66
61128;BME280;47013;42.664;23.242;2023-10-09T01:22:40;94555.03;;;16.65;60.29
61128;BME280;47013;42.664;23.242;2023-10-09T01:25:07;94546.34;;;16.54;60.18
61128;BME280;47013;42.664;23.242;2023-10-09T01:27:32;94537.25;;;16.57;60.15
61128;BME280;47013;42.664;23.242;2023-10-09T01:29:59;94542.03;;;16.53;59.75
61128;BME280;47013;42.664;23.242;2023-10-09T01:32:24;94558.75;;;16.42;60.45
61128;BME280;47013;42.664;23.242;2023-10-09T01:34:52;94566.59;;;16.40;60.18
61128;BME280;47013;42.664;23.242;2023-10-09T01:37:20;94583.81;;;16.41;59.50
61128;BME280;47013;42.664;23.242;2023-10-09T01:39:56;94591.91;;;16.28;59.63
61128;BME280;47013;42.664;23.242;2023-10-09T01:42:25;94594.91;;;16.34;59.41
61128;BME280;47013;42.664;23.242;2023-10-09T01:45:03;94576.00;;;16.23;59.58
61128;BME280;47013;42.664;23.242;2023-10-09T01:47:53;94555.81;;;16.17;59.69
61128;BME280;47013;42.664;23.242;2023-10-09T01:50:22;94557.59;;;16.07;60.02
61128;BME280;47013;42.664;23.242;2023-10-09T01:52:50;94561.75;;;15.96;60.23
61128;BME280;47013;42.664;23.242;2023-10-09T01:55:16;94565.34;;;15.92;60.43
61128;BME280;47013;42.664;23.242;2023-10-09T01:58:14;94566.34;;;15.82;60.06
61128;BME280;47013;42.664;23.242;2023-10-09T02:00:42;94589.41;;;15.81;60.26
61128;BME280;47013;42.664;23.242;2023-10-09T02:03:09;94589.84;;;15.80;60.11
61128;BME280;47013;42.664;23.242;2023-10-09T02:05:52;94592.72;;;15.73;60.13
61128;BME280;47013;42.664;23.242;2023-10-09T02:08:25;94595.31;;;15.60;60.59
61128;BME280;47013;42.664;23.242;2023-10-09T02:10:52;94605.09;;;15.57;60.31
61128;BME280;47013;42.664;23.242;2023-10-09T02:13:22;94608.59;;;15.58;60.38
61128;BME280;47013;42.664;23.242;2023-10-09T02:15:56;94610.34;;;15.48;59.94
61128;BME280;47013;42.664;23.242;2023-10-09T02:18:22;94606.72;;;15.55;59.46
61128;BME280;47013;42.664;23.242;2023-10-09T02:23:38;94603.63;;;15.53;58.88
61128;BME280;47013;42.664;23.242;2023-10-09T02:26:10;94602.56;;;15.47;58.81
61128;BME280;47013;42.664;23.242;2023-10-09T02:28:44;94614.78;;;15.42;58.86
61128;BME280;47013;42.664;23.242;2023-10-09T02:31:17;94629.22;;;15.43;58.88
61128;BME280;47013;42.664;23.242;2023-10-09T02:33:44;94629.31;;;15.35;58.87
61128;BME280;47013;42.664;23.242;2023-10-09T02:36:09;94624.34;;;15.30;58.77
61128;BME280;47013;42.664;23.242;2023-10-09T02:38:38;94628.56;;;15.35;58.80
61128;BME280;47013;42.664;23.242;2023-10-09T02:41:06;94632.31;;;15.21;58.93
61128;BME280;47013;42.664;23.242;2023-10-09T02:43:33;94639.66;;;15.04;59.78
61128;BME280;47013;42.664;23.242;2023-10-09T02:46:15;94648.75;;;14.98;59.70
61128;BME280;47013;42.664;23.242;2023-10-09T02:48:46;94651.84;;;15.00;59.93
61128;BME280;47013;42.664;23.242;2023-10-09T02:51:22;94654.22;;;14.98;59.70
61128;BME280;47013;42.664;23.242;2023-10-09T02:53:51;94651.34;;;15.05;59.92
61128;BME280;47013;42.664;23.242;2023-10-09T02:56:17;94642.03;;;15.02;59.94
61128;BME280;47013;42.664;23.242;2023-10-09T02:58:51;94653.13;;;14.92;60.25
61128;BME280;47013;42.664;23.242;2023-10-09T03:01:17;94659.00;;;14.90;59.79
61128;BME280;47013;42.664;23.242;2023-10-09T03:03:42;94648.50;;;14.89;60.04
61128;BME280;47013;42.664;23.242;2023-10-09T03:06:13;94650.03;;;14.90;60.12
61128;BME280;47013;42.664;23.242;2023-10-09T03:08:39;94642.97;;;14.69;60.48
61128;BME280;47013;42.664;23.242;2023-10-09T03:11:07;94644.28;;;14.61;60.70
61128;BME280;47013;42.664;23.242;2023-10-09T03:13:41;94649.38;;;14.59;60.75
61128;BME280;47013;42.664;23.242;2023-10-09T03:16:08;94654.09;;;14.55;60.90
61128;BME280;47013;42.664;23.242;2023-10-09T03:18:37;94656.81;;;14.55;60.76
61128;BME280;47013;42.664;23.242;2023-10-09T03:21:02;94662.44;;;14.44;61.32
61128;BME280;47013;42.664;23.242;2023-10-09T03:23:28;94671.97;;;14.32;61.70
61128;BME280;47013;42.664;23.242;2023-10-09T03:25:54;94680.31;;;14.18;62.25
61128;BME280;47013;42.664;23.242;2023-10-09T03:28:21;94687.63;;;14.25;61.79
61128;BME280;47013;42.664;23.242;2023-10-09T03:30:46;94681.84;;;14.19;61.59
61128;BME280;47013;42.664;23.242;2023-10-09T03:33:13;94676.97;;;14.07;61.89
61128;BME280;47013;42.664;23.242;2023-10-09T03:35:40;94675.88;;;14.01;61.97
61128;BME280;47013;42.664;23.242;2023-10-09T03:38:05;94676.28;;;13.99;61.93
61128;BME280;47013;42.664;23.242;2023-10-09T03:40:46;94689.19;;;13.95;62.13
61128;BME280;47013;42.664;23.242;2023-10-09T03:43:15;94687.19;;;13.99;61.87
61128;BME280;47013;42.664;23.242;2023-10-09T03:45:41;94689.13;;;13.99;61.70
61128;BME280;47013;42.664;23.242;2023-10-09T03:48:17;94680.13;;;14.02;61.68
61128;BME280;47013;42.664;23.242;2023-10-09T03:50:57;94682.91;;;13.98;61.73
61128;BME280;47013;42.664;23.242;2023-10-09T03:53:37;94682.44;;;14.03;61.64
61128;BME280;47013;42.664;23.242;2023-10-09T03:56:05;94682.81;;;14.05;60.98
61128;BME280;47013;42.664;23.242;2023-10-09T03:58:40;94689.91;;;13.99;61.22
61128;BME280;47013;42.664;23.242;2023-10-09T04:03:43;94700.22;;;13.84;61.38
61128;BME280;47013;42.664;23.242;2023-10-09T04:06:09;94704.13;;;13.83;60.82
61128;BME280;47013;42.664;23.242;2023-10-09T04:08:36;94696.78;;;13.80;60.89
61128;BME280;47013;42.664;23.242;2023-10-09T04:11:05;94696.78;;;13.77;60.41
61128;BME280;47013;42.664;23.242;2023-10-09T04:13:42;94699.25;;;13.68;60.12
61128;BME280;47013;42.664;23.242;2023-10-09T04:16:11;94690.00;;;13.58;60.23
61128;BME280;47013;42.664;23.242;2023-10-09T04:18:53;94687.38;;;13.47;64.20
61128;BME280;47013;42.664;23.242;2023-10-09T04:21:22;94686.16;;;13.52;60.78
61128;BME280;47013;42.664;23.242;2023-10-09T04:24:07;94686.94;;;13.52;59.97
61128;BME280;47013;42.664;23.242;2023-10-09T04:26:40;94701.31;;;13.53;59.80
61128;BME280;47013;42.664;23.242;2023-10-09T04:29:10;94701.72;;;13.55;58.39
61128;BME280;47013;42.664;23.242;2023-10-09T04:31:36;94699.00;;;13.51;57.77
61128;BME280;47013;42.664;23.242;2023-10-09T04:34:03;94704.13;;;13.46;56.91
61128;BME280;47013;42.664;23.242;2023-10-09T04:36:51;94704.56;;;13.41;56.90
61128;BME280;47013;42.664;23.242;2023-10-09T04:39:26;94699.25;;;13.26;57.39
61128;BME280;47013;42.664;23.242;2023-10-09T04:41:57;94703.16;;;13.25;56.56
61128;BME280;47013;42.664;23.242;2023-10-09T04:44:42;94702.03;;;13.23;56.49
61128;BME280;47013;42.664;23.242;2023-10-09T04:47:26;94707.81;;;13.28;56.04
61128;BME280;47013;42.664;23.242;2023-10-09T04:50:02;94707.91;;;13.14;55.53
61128;BME280;47013;42.664;23.242;2023-10-09T04:52:32;94706.34;;;13.13;54.58
61128;BME280;47013;42.664;23.242;2023-10-09T04:54:58;94707.47;;;13.23;54.46
61128;BME280;47013;42.664;23.242;2023-10-09T04:57:34;94711.41;;;13.18;53.45
61128;BME280;47013;42.664;23.242;2023-10-09T05:02:54;94708.28;;;13.20;52.70
61128;BME280;47013;42.664;23.242;2023-10-09T05:05:25;94722.69;;;13.17;53.05
61128;BME280;47013;42.664;23.242;2023-10-09T05:08:06;94724.22;;;13.21;52.78
61128;BME280;47013;42.664;23.242;2023-10-09T05:10:51;94721.81;;;13.27;52.55
61128;BME280;47013;42.664;23.242;2023-10-09T05:13:23;94727.75;;;13.18;51.70
61128;BME280;47013;42.664;23.242;2023-10-09T05:16:05;94724.84;;;12.91;52.95
61128;BME280;47013;42.664;23.242;2023-10-09T05:18:32;94732.47;;;13.07;52.56
61128;BME280;47013;42.664;23.242;2023-10-09T05:21:07;94733.19;;;13.18;51.48
61128;BME280;47013;42.664;23.242;2023-10-09T05:23:39;94738.16;;;13.27;51.18
61128;BME280;47013;42.664;23.242;2023-10-09T05:26:17;94734.25;;;13.28;51.18
61128;BME280;47013;42.664;23.242;2023-10-09T05:29:02;94741.72;;;13.20;50.55
61128;BME280;47013;42.664;23.242;2023-10-09T05:31:45;94756.44;;;13.26;50.01
61128;BME280;47013;42.664;23.242;2023-10-09T05:34:21;94754.44;;;13.34;50.17
61128;BME280;47013;42.664;23.242;2023-10-09T05:36:47;94759.44;;;13.43;50.46
61128;BME280;47013;42.664;23.242;2023-10-09T05:39:38;94760.50;;;13.52;50.01
61128;BME280;47013;42.664;23.242;2023-10-09T05:42:07;94762.09;;;13.50;50.44
61128;BME280;47013;42.664;23.242;2023-10-09T05:44:42;94762.94;;;13.40;49.50
61128;BME280;47013;42.664;23.242;2023-10-09T05:47:10;94766.75;;;13.49;49.58
61128;BME280;47013;42.664;23.242;2023-10-09T05:49:54;94787.34;;;13.54;49.16
61128;BME280;47013;42.664;23.242;2023-10-09T05:52:42;94788.22;;;13.40;49.67
61128;BME280;47013;42.664;23.242;2023-10-09T05:55:29;94793.03;;;13.29;49.20
61128;BME280;47013;42.664;23.242;2023-10-09T05:59:28;94797.13;;;13.48;49.74
61128;BME280;47013;42.664;23.242;2023-10-09T06:02:16;94797.78;;;13.63;48.93
61128;BME280;47013;42.664;23.242;2023-10-09T06:05:02;94792.31;;;13.63;48.55
61128;BME280;47013;42.664;23.242;2023-10-09T06:07:47;94814.06;;;13.70;48.17
61128;BME280;47013;42.664;23.242;2023-10-09T06:10:29;94807.03;;;13.72;48.24
61128;BME280;47013;42.664;23.242;2023-10-09T06:13:06;94810.50;;;13.76;48.35
61128;BME280;47013;42.664;23.242;2023-10-09T06:15:38;94813.16;;;13.83;47.87
61128;BME280;47013;42.664;23.242;2023-10-09T06:18:12;94816.25;;;13.85;46.73
61128;BME280;47013;42.664;23.242;2023-10-09T06:20:57;94820.06;;;13.95;46.84
61128;BME280;47013;42.664;23.242;2023-10-09T06:23:34;94824.22;;;14.07;46.82
61128;BME280;47013;42.664;23.242;2023-10-09T06:26:18;94817.00;;;14.24;46.75
61128;BME280;47013;42.664;23.242;2023-10-09T06:28:51;94826.53;;;14.42;46.83
61128;BME280;47013;42.664;23.242;2023-10-09T06:31:37;94831.22;;;14.42;46.08
61128;BME280;47013;42.664;23.242;2023-10-09T06:34:20;94826.78;;;14.59;45.58
61128;BME280;47013;42.664;23.242;2023-10-09T06:36:57;94835.56;;;14.70;44.67
61128;BME280;47013;42.664;23.242;2023-10-09T06:39:28;94842.03;;;14.83;43.86
61128;BME280;47013;42.664;23.242;2023-10-09T06:42:12;94828.34;;;14.87;42.07
61128;BME280;47013;42.664;23.242;2023-10-09T06:45:00;94821.56;;;14.98;42.66
61128;BME280;47013;42.664;23.242;2023-10-09T06:47:29;94819.06;;;15.08;42.64
61128;BME280;47013;42.664;23.242;2023-10-09T06:50:02;94826.91;;;15.05;42.27
61128;BME280;47013;42.664;23.242;2023-10-09T06:52:46;94825.47;;;15.24;41.41
61128;BME280;47013;42.664;23.242;2023-10-09T06:55:50;94838.84;;;15.42;41.08
61128;BME280;47013;42.664;23.242;2023-10-09T06:58:21;94831.97;;;15.57;40.47
61128;BME280;47013;42.664;23.242;2023-10-09T07:00:53;94837.00;;;15.62;39.56
61128;BME280;47013;42.664;23.242;2023-10-09T07:03:37;94828.47;;;15.57;38.64
61128;BME280;47013;42.664;23.242;2023-10-09T07:06:18;94835.09;;;15.59;38.89
61128;BME280;47013;42.664;23.242;2023-10-09T07:08:51;94824.16;;;15.59;39.45
61128;BME280;47013;42.664;23.242;2023-10-09T07:11:34;94827.03;;;15.76;39.07
61128;BME280;47013;42.664;23.242;2023-10-09T07:16:32;94837.16;;;15.99;38.59
61128;BME280;47013;42.664;23.242;2023-10-09T07:19:04;94829.25;;;16.24;37.63
61128;BME280;47013;42.664;23.242;2023-10-09T07:21:51;94827.09;;;16.35;37.53
61128;BME280;47013;42.664;23.242;2023-10-09T07:24:20;94837.78;;;16.49;37.23
61128;BME280;47013;42.664;23.242;2023-10-09T07:26:50;94831.59;;;16.45;35.96
61128;BME280;47013;42.664;23.242;2023-10-09T07:29:20;94827.59;;;16.50;34.99
61128;BME280;47013;42.664;23.242;2023-10-09T07:31:49;94828.44;;;16.67;35.46
61128;BME280;47013;42.664;23.242;2023-10-09T07:34:25;94822.56;;;16.68;33.88
61128;BME280;47013;42.664;23.242;2023-10-09T07:36:57;94830.16;;;16.80;34.69
61128;BME280;47013;42.664;23.242;2023-10-09T07:39:22;94830.25;;;16.93;35.29
61128;BME280;47013;42.664;23.242;2023-10-09T07:41:48;94822.75;;;17.14;35.30
61128;BME280;47013;42.664;23.242;2023-10-09T07:44:39;94833.69;;;17.33;35.29
61128;BME280;47013;42.664;23.242;2023-10-09T07:47:07;94832.03;;;17.36;34.95
61128;BME280;47013;42.664;23.242;2023-10-09T07:49:42;94833.72;;;17.30;33.83
61128;BME280;47013;42.664;23.242;2023-10-09T07:52:14;94831.63;;;17.37;33.41
61128;BME280;47013;42.664;23.242;2023-10-09T07:54:40;94836.91;;;17.28;33.48
61128;BME280;47013;42.664;23.242;2023-10-09T07:57:17;94835.03;;;17.42;33.56
61128;BME280;47013;42.664;23.242;2023-10-09T07:59:43;94830.50;;;17.51;32.88
61128;BME280;47013;42.664;23.242;2023-10-09T08:02:29;94835.47;;;17.56;31.64
61128;BME280;47013;42.664;23.242;2023-10-09T08:04:58;94840.53;;;17.58;31.71
61128;BME280;47013;42.664;23.242;2023-10-09T08:07:29;94834.34;;;17.54;32.20
61128;BME280;47013;42.664;23.242;2023-10-09T08:10:07;94844.06;;;17.58;32.70
61128;BME280;47013;42.664;23.242;2023-10-09T08:12:39;94836.72;;;17.72;32.61
61128;BME280;47013;42.664;23.242;2023-10-09T08:15:23;94838.50;;;17.78;32.02
61128;BME280;47013;42.664;23.242;2023-10-09T08:18:00;94843.06;;;17.85;31.15
61128;BME280;47013;42.664;23.242;2023-10-09T08:20:29;94838.22;;;18.05;30.59
61128;BME280;47013;42.664;23.242;2023-10-09T08:23:16;94832.69;;;18.21;30.53
61128;BME280;47013;42.664;23.242;2023-10-09T08:26:04;94834.63;;;18.37;30.17
61128;BME280;47013;42.664;23.242;2023-10-09T08:28:39;94831.25;;;18.46;30.77
61128;BME280;47013;42.664;23.242;2023-10-09T08:31:14;94821.41;;;18.61;30.67
61128;BME280;47013;42.664;23.242;2023-10-09T08:33:58;94817.16;;;18.73;30.23
61128;BME280;47013;42.664;23.242;2023-10-09T08:36:28;94809.28;;;18.88;30.32
61128;BME280;47013;42.664;23.242;2023-10-09T08:38:55;94801.91;;;18.84;30.52
61128;BME280;47013;42.664;23.242;2023-10-09T08:41:24;94803.25;;;18.93;29.94
61128;BME280;47013;42.664;23.242;2023-10-09T08:43:56;94794.13;;;18.96;29.77
61128;BME280;47013;42.664;23.242;2023-10-09T08:46:27;94791.06;;;19.06;29.29
61128;BME280;47013;42.664;23.242;2023-10-09T08:48:56;94783.47;;;19.23;28.70
61128;BME280;47013;42.664;23.242;2023-10-09T08:51:27;94780.16;;;19.54;28.22
61128;BME280;47013;42.664;23.242;2023-10-09T08:53:54;94778.59;;;19.65;28.37
61128;BME280;47013;42.664;23.242;2023-10-09T08:56:21;94772.91;;;19.60;27.88
61128;BME280;47013;42.664;23.242;2023-10-09T08:58:53;94778.19;;;19.67;28.68
61128;BME280;47013;42.664;23.242;2023-10-09T09:01:20;94766.63;;;19.59;28.79
61128;BME280;47013;42.664;23.242;2023-10-09T09:03:46;94761.47;;;19.36;28.49
61128;BME280;47013;42.664;23.242;2023-10-09T09:06:11;94772.34;;;19.39;28.91
61128;BME280;47013;42.664;23.242;2023-10-09T09:08:39;94770.03;;;19.38;28.98
61128;BME280;47013;42.664;23.242;2023-10-09T09:11:10;94778.75;;;19.11;29.29
61128;BME280;47013;42.664;23.242;2023-10-09T09:13:59;94780.84;;;18.94;29.35
61128;BME280;47013;42.664;23.242;2023-10-09T09:16:31;94777.84;;;18.76;29.72
61128;BME280;47013;42.664;23.242;2023-10-09T09:19:02;94774.88;;;18.70;29.97
61128;BME280;47013;42.664;23.242;2023-10-09T09:21:48;94775.19;;;18.72;29.88
61128;BME280;47013;42.664;23.242;2023-10-09T09:24:14;94773.47;;;18.78;30.50
61128;BME280;47013;42.664;23.242;2023-10-09T09:26:40;94768.63;;;18.82;29.65
61128;BME280;47013;42.664;23.242;2023-10-09T09:29:15;94777.09;;;18.75;30.46
61128;BME280;47013;42.664;23.242;2023-10-09T09:31:55;94772.88;;;18.71;30.40
61128;BME280;47013;42.664;23.242;2023-10-09T09:34:23;94767.84;;;18.82;30.41
61128;BME280;47013;42.664;23.242;2023-10-09T09:36:57;94763.78;;;18.86;30.28
61128;BME280;47013;42.664;23.242;2023-10-09T09:39:25;94753.78;;;18.80;30.58
61128;BME280;47013;42.664;23.242;2023-10-09T09:42:00;94755.44;;;19.03;30.17
61128;BME280;47013;42.664;23.242;2023-10-09T09:44:33;94753.47;;;19.29;29.88
61128;BME280;47013;42.664;23.242;2023-10-09T09:47:09;94751.78;;;19.57;29.14
61128;BME280;47013;42.664;23.242;2023-10-09T09:49:42;94765.44;;;19.95;27.79
61128;BME280;47013;42.664;23.242;2023-10-09T09:52:09;94759.94;;;19.95;27.43
61128;BME280;47013;42.664;23.242;2023-10-09T09:54:38;94757.59;;;20.28;27.47
61128;BME280;47013;42.664;23.242;2023-10-09T09:57:05;94752.28;;;20.55;27.41
61128;BME280;47013;42.664;23.242;2023-10-09T09:59:40;94737.72;;;20.77;26.91
61128;BME280;47013;42.664;23.242;2023-10-09T10:02:07;94730.66;;;21.07;26.08
61128;BME280;47013;42.664;23.242;2023-10-09T10:04:38;94730.94;;;21.40;26.07
61128;BME280;47013;42.664;23.242;2023-10-09T10:07:06;94724.25;;;21.68;24.98
61128;BME280;47013;42.664;23.242;2023-10-09T10:09:39;94722.44;;;21.93;25.16
61128;BME280;47013;42.664;23.242;2023-10-09T10:12:05;94713.56;;;22.16;25.17
61128;BME280;47013;42.664;23.242;2023-10-09T10:14:55;94699.72;;;22.34;24.96
61128;BME280;47013;42.664;23.242;2023-10-09T10:20:30;94690.22;;;22.08;23.64
61128;BME280;47013;42.664;23.242;2023-10-09T10:23:16;94680.69;;;22.00;24.02
61128;BME280;47013;42.664;23.242;2023-10-09T10:25:43;94681.66;;;22.15;24.13
61128;BME280;47013;42.664;23.242;2023-10-09T10:28:24;94668.25;;;22.23;24.04
61128;BME280;47013;42.664;23.242;2023-10-09T10:31:10;94658.94;;;22.62;23.95
61128;BME280;47013;42.664;23.242;2023-10-09T10:36:23;94656.53;;;22.98;23.62
61128;BME280;47013;42.664;23.242;2023-10-09T10:39:04;94655.69;;;23.15;23.27
61128;BME280;47013;42.664;23.242;2023-10-09T10:41:30;94651.88;;;23.37;23.14
61128;BME280;47013;42.664;23.242;2023-10-09T10:44:01;94632.22;;;23.35;23.42
61128;BME280;47013;42.664;23.242;2023-10-09T10:46:46;94626.44;;;23.47;23.11
61128;BME280;47013;42.664;23.242;2023-10-09T10:49:17;94625.56;;;23.56;23.20
61128;BME280;47013;42.664;23.242;2023-10-09T10:51:49;94629.41;;;23.82;22.89
61128;BME280;47013;42.664;23.242;2023-10-09T10:54:22;94624.03;;;23.79;23.15
61128;BME280;47013;42.664;23.242;2023-10-09T10:56:56;94623.31;;;24.08;22.23
61128;BME280;47013;42.664;23.242;2023-10-09T10:59:23;94622.88;;;24.09;22.37
61128;BME280;47013;42.664;23.242;2023-10-09T11:01:50;94622.75;;;24.04;22.46
61128;BME280;47013;42.664;23.242;2023-10-09T11:04:24;94618.38;;;24.12;22.17
61128;BME280;47013;42.664;23.242;2023-10-09T11:06:56;94623.31;;;24.08;22.29
61128;BME280;47013;42.664;23.242;2023-10-09T11:09:26;94627.25;;;24.01;22.30
61128;BME280;47013;42.664;23.242;2023-10-09T11:12:05;94615.50;;;24.21;21.92
61128;BME280;47013;42.664;23.242;2023-10-09T11:14:48;94604.31;;;24.16;22.04
61128;BME280;47013;42.664;23.242;2023-10-09T11:17:35;94592.47;;;24.45;21.67
61128;BME280;47013;42.664;23.242;2023-10-09T11:20:04;94584.97;;;24.80;21.73
61128;BME280;47013;42.664;23.242;2023-10-09T11:22:56;94578.34;;;24.92;21.00
61128;BME280;47013;42.664;23.242;2023-10-09T11:25:42;94571.53;;;25.28;21.07
61128;BME280;47013;42.664;23.242;2023-10-09T11:28:18;94575.75;;;25.44;20.45
61128;BME280;47013;42.664;23.242;2023-10-09T11:31:14;94566.03;;;25.34;20.40
61128;BME280;47013;42.664;23.242;2023-10-09T11:34:01;94579.03;;;25.43;20.36
61128;BME280;47013;42.664;23.242;2023-10-09T11:36:27;94581.09;;;25.48;20.05
61128;BME280;47013;42.664;23.242;2023-10-09T11:39:00;94583.09;;;25.47;20.05
61128;BME280;47013;42.664;23.242;2023-10-09T11:41:42;94579.41;;;25.76;19.81
61128;BME280;47013;42.664;23.242;2023-10-09T11:44:08;94577.13;;;26.01;19.60
61128;BME280;47013;42.664;23.242;2023-10-09T11:47:02;94569.19;;;26.14;19.20
61128;BME280;47013;42.664;23.242;2023-10-09T11:49:56;94566.91;;;26.12;18.11
61128;BME280;47013;42.664;23.242;2023-10-09T11:52:29;94546.00;;;26.23;18.28
61128;BME280;47013;42.664;23.242;2023-10-09T11:55:04;94545.03;;;26.26;18.26
61128;BME280;47013;42.664;23.242;2023-10-09T11:57:40;94546.66;;;26.38;18.38
61128;BME280;47013;42.664;23.242;2023-10-09T12:00:06;94539.53;;;26.31;17.30
61128;BME280;47013;42.664;23.242;2023-10-09T12:02:50;94538.81;;;25.58;17.95
61128;BME280;47013;42.664;23.242;2023-10-09T12:05:16;94523.16;;;24.59;17.86
61128;BME280;47013;42.664;23.242;2023-10-09T12:07:47;94522.44;;;24.79;18.53
61128;BME280;47013;42.664;23.242;2023-10-09T12:10:19;94515.53;;;24.54;18.48
61128;BME280;47013;42.664;23.242;2023-10-09T12:12:50;94511.38;;;24.64;17.98
61128;BME280;47013;42.664;23.242;2023-10-09T12:15:15;94511.97;;;24.89;17.60
61128;BME280;47013;42.664;23.242;2023-10-09T12:17:44;94516.56;;;25.12;16.75
61128;BME280;47013;42.664;23.242;2023-10-09T12:20:15;94503.34;;;24.66;16.76
61128;BME280;47013;42.664;23.242;2023-10-09T12:22:59;94498.16;;;24.94;16.98
61128;BME280;47013;42.664;23.242;2023-10-09T12:25:25;94505.31;;;25.21;16.74
61128;BME280;47013;42.664;23.242;2023-10-09T12:27:51;94505.03;;;25.40;15.95
61128;BME280;47013;42.664;23.242;2023-10-09T12:30:25;94499.16;;;25.58;15.47
61128;BME280;47013;42.664;23.242;2023-10-09T12:32:54;94502.75;;;25.64;15.90
61128;BME280;47013;42.664;23.242;2023-10-09T12:35:20;94497.50;;;25.20;15.69
61128;BME280;47013;42.664;23.242;2023-10-09T12:37:46;94489.31;;;25.11;16.32
61128;BME280;47013;42.664;23.242;2023-10-09T12:40:12;94481.38;;;24.63;15.96
61128;BME280;47013;42.664;23.242;2023-10-09T12:42:38;94474.53;;;24.44;16.29
61128;BME280;47013;42.664;23.242;2023-10-09T12:45:03;94478.88;;;23.56;17.03
61128;BME280;47013;42.664;23.242;2023-10-09T12:47:34;94479.84;;;23.53;17.38
61128;BME280;47013;42.664;23.242;2023-10-09T12:50:03;94481.03;;;23.22;17.30
61128;BME280;47013;42.664;23.242;2023-10-09T12:52:29;94480.16;;;23.16;17.39
61128;BME280;47013;42.664;23.242;2023-10-09T12:54:55;94465.88;;;23.18;17.01
61128;BME280;47013;42.664;23.242;2023-10-09T12:57:20;94463.19;;;23.23;17.55
61128;BME280;47013;42.664;23.242;2023-10-09T12:59:46;94464.59;;;22.80;17.49
61128;BME280;47013;42.664;23.242;2023-10-09T13:02:14;94457.59;;;22.70;17.42
61128;BME280;47013;42.664;23.242;2023-10-09T13:04:56;94454.59;;;22.59;17.02
61128;BME280;47013;42.664;23.242;2023-10-09T13:07:22;94451.31;;;22.46;17.58
61128;BME280;47013;42.664;23.242;2023-10-09T13:09:50;94450.72;;;22.42;16.94
61128;BME280;47013;42.664;23.242;2023-10-09T13:12:45;94449.06;;;22.35;17.33
61128;BME280;47013;42.664;23.242;2023-10-09T13:15:11;94434.25;;;22.23;17.77
61128;BME280;47013;42.664;23.242;2023-10-09T13:17:37;94431.38;;;22.18;17.23
61128;BME280;47013;42.664;23.242;2023-10-09T13:20:03;94425.69;;;22.12;18.11
61128;BME280;47013;42.664;23.242;2023-10-09T13:22:41;94429.25;;;22.03;17.22
61128;BME280;47013;42.664;23.242;2023-10-09T13:25:10;94433.72;;;22.01;17.59
61128;BME280;47013;42.664;23.242;2023-10-09T13:27:43;94424.72;;;21.91;17.65
61128;BME280;47013;42.664;23.242;2023-10-09T13:30:18;94414.28;;;21.86;17.34
61128;BME280;47013;42.664;23.242;2023-10-09T13:32:50;94409.25;;;21.85;18.04
61128;BME280;47013;42.664;23.242;2023-10-09T13:35:19;94415.38;;;21.89;22.85
61128;BME280;47013;42.664;23.242;2023-10-09T13:37:45;94414.66;;;21.79;18.64
61128;BME280;47013;42.664;23.242;2023-10-09T13:40:20;94406.38;;;21.79;17.92